createdAt,value
2018-06-10T00:00:10.109Z,19.07
2018-06-10T00:01:10.040Z,19.08
2018-06-10T00:02:09.965Z,19.00
2018-06-10T00:03:09.900Z,19.11
2018-06-10T00:04:09.815Z,19.15
2018-06-10T00:05:09.741Z,19.08
2018-06-10T00:06:09.673Z,19.12
2018-06-10T00:07:09.600Z,19.07
2018-06-10T00:08:09.522Z,19.09
2018-06-10T00:09:09.449Z,19.00
2018-06-10T00:10:09.375Z,19.04
2018-06-10T00:11:09.301Z,19.11
2018-06-10T00:12:09.230Z,19.02
2018-06-10T00:13:09.155Z,19.08
2018-06-10T00:14:09.081Z,19.02
2018-06-10T00:15:09.008Z,19.09
2018-06-10T00:16:08.935Z,19.04
2018-06-10T00:17:08.861Z,19.00
2018-06-10T00:18:08.787Z,19.04
2018-06-10T00:19:08.717Z,18.96
2018-06-10T00:20:08.639Z,18.93
2018-06-10T00:21:08.571Z,19.00
2018-06-10T00:22:08.494Z,19.00
2018-06-10T00:23:08.423Z,18.90
2018-06-10T00:24:08.346Z,18.99
2018-06-10T00:25:08.272Z,18.93
2018-06-10T00:26:08.199Z,18.84
2018-06-10T00:27:08.125Z,18.92
2018-06-10T00:28:08.050Z,18.96
2018-06-10T00:29:07.977Z,18.95
2018-06-10T00:30:07.909Z,18.89
2018-06-10T00:31:07.831Z,18.90
2018-06-10T00:32:07.766Z,18.88
2018-06-10T00:33:07.683Z,18.90
2018-06-10T00:34:07.610Z,18.93
2018-06-10T00:35:07.536Z,18.90
2018-06-10T00:36:07.461Z,18.92
2018-06-10T00:37:07.391Z,18.96
2018-06-10T00:38:07.314Z,18.89
2018-06-10T00:39:07.291Z,18.86
2018-06-10T00:40:07.170Z,18.81
2018-06-10T00:41:07.094Z,18.81
2018-06-10T00:42:07.021Z,18.90
2018-06-10T00:43:06.945Z,18.90
2018-06-10T00:44:06.873Z,18.86
2018-06-10T00:45:06.802Z,18.89
2018-06-10T00:46:06.724Z,18.90
2018-06-10T00:47:06.649Z,18.88
2018-06-10T00:48:06.579Z,18.90
2018-06-10T00:49:06.505Z,18.84
2018-06-10T00:50:06.431Z,18.81
2018-06-10T00:51:06.356Z,18.81
2018-06-10T00:52:06.286Z,18.88
2018-06-10T00:53:06.213Z,18.83
2018-06-10T00:54:06.263Z,18.80
2018-06-10T00:55:06.060Z,18.81
2018-06-10T00:56:05.988Z,18.73
2018-06-10T00:57:05.919Z,18.65
2018-06-10T00:58:05.841Z,18.65
2018-06-10T00:59:05.766Z,18.66
2018-06-10T01:00:05.695Z,18.71
2018-06-10T01:01:05.620Z,18.63
2018-06-10T01:02:05.548Z,18.68
2018-06-10T01:03:05.473Z,18.65
2018-06-10T01:04:05.412Z,18.71
2018-06-10T01:05:05.347Z,18.63
2018-06-10T01:06:05.254Z,18.65
2018-06-10T01:07:05.175Z,18.65
2018-06-10T01:08:05.105Z,18.65
2018-06-10T01:09:05.087Z,18.77
2018-06-10T01:10:04.954Z,18.63
2018-06-10T01:11:04.888Z,18.66
2018-06-10T01:12:04.807Z,18.66
2018-06-10T01:13:04.749Z,18.70
2018-06-10T01:14:04.662Z,18.74
2018-06-10T01:15:04.592Z,18.70
2018-06-10T01:16:04.517Z,18.70
2018-06-10T01:17:04.441Z,18.78
2018-06-10T01:18:04.367Z,18.80
2018-06-10T01:19:04.295Z,18.70
2018-06-10T01:20:04.224Z,18.81
2018-06-10T01:21:04.171Z,18.71
2018-06-10T01:22:04.070Z,18.78
2018-06-10T01:23:03.997Z,18.73
2018-06-10T01:24:03.929Z,18.66
2018-06-10T01:25:03.856Z,18.68
2018-06-10T01:26:03.777Z,18.63
2018-06-10T01:27:03.703Z,18.70
2018-06-10T01:28:03.638Z,18.68
2018-06-10T01:29:03.556Z,18.62
2018-06-10T01:30:03.485Z,18.68
2018-06-10T01:31:03.406Z,18.62
2018-06-10T01:32:03.332Z,18.66
2018-06-10T01:33:03.258Z,18.60
2018-06-10T01:34:03.185Z,18.63
2018-06-10T01:35:03.113Z,18.65
2018-06-10T01:36:03.039Z,18.56
2018-06-10T01:37:02.965Z,18.63
2018-06-10T01:38:02.892Z,18.52
2018-06-10T01:39:02.817Z,18.58
2018-06-10T01:40:02.745Z,18.53
2018-06-10T01:41:02.669Z,18.52
2018-06-10T01:42:02.597Z,18.52
2018-06-10T01:43:02.523Z,18.52
2018-06-10T01:44:02.470Z,18.55
2018-06-10T01:45:02.397Z,18.52
2018-06-10T01:46:02.319Z,18.49
2018-06-10T01:47:02.226Z,18.53
2018-06-10T01:48:02.159Z,18.52
2018-06-10T01:49:02.119Z,18.53
2018-06-10T01:50:02.027Z,18.47
2018-06-10T01:51:01.931Z,18.50
2018-06-10T01:52:01.858Z,18.52
2018-06-10T01:53:01.790Z,18.49
2018-06-10T01:54:01.714Z,18.41
2018-06-10T01:55:01.639Z,18.41
2018-06-10T01:56:01.561Z,18.35
2018-06-10T01:57:01.490Z,18.40
2018-06-10T01:58:01.419Z,18.29
2018-06-10T01:59:01.340Z,18.31
2018-06-10T02:00:01.268Z,18.26
2018-06-10T02:01:01.277Z,18.40
2018-06-10T02:02:01.121Z,18.33
2018-06-10T02:03:01.045Z,18.31
2018-06-10T02:04:00.971Z,18.38
2018-06-10T02:05:00.902Z,18.28
2018-06-10T02:06:00.822Z,18.34
2018-06-10T02:07:00.749Z,18.22
2018-06-10T02:08:00.683Z,18.29
2018-06-10T02:09:00.604Z,18.25
2018-06-10T02:10:00.530Z,18.29
2018-06-10T02:11:00.473Z,18.20
2018-06-10T02:12:00.377Z,18.28
2018-06-10T02:13:00.305Z,18.23
2018-06-10T02:14:00.231Z,18.23
2018-06-10T02:15:00.158Z,18.22
2018-06-10T02:16:00.082Z,18.23
2018-06-10T02:17:00.009Z,18.13
2018-06-10T02:17:59.933Z,18.19
2018-06-10T02:18:59.858Z,18.20
2018-06-10T02:19:59.788Z,18.22
2018-06-10T02:20:59.723Z,18.13
2018-06-10T02:21:59.639Z,18.11
2018-06-10T02:22:59.567Z,18.20
2018-06-10T02:23:59.496Z,18.08
2018-06-10T02:24:59.414Z,18.07
2018-06-10T02:25:59.341Z,18.18
2018-06-10T02:26:59.269Z,18.10
2018-06-10T02:27:59.196Z,18.07
2018-06-10T02:28:59.121Z,18.19
2018-06-10T02:29:59.048Z,18.22
2018-06-10T02:30:58.973Z,18.07
2018-06-10T02:31:58.896Z,18.03
2018-06-10T02:32:58.820Z,18.19
2018-06-10T02:33:58.751Z,18.11
2018-06-10T02:34:58.675Z,18.08
2018-06-10T02:35:58.599Z,18.18
2018-06-10T02:36:58.525Z,18.10
2018-06-10T02:37:58.469Z,18.07
2018-06-10T02:38:58.434Z,18.07
2018-06-10T02:39:58.302Z,18.07
2018-06-10T02:40:58.229Z,18.07
2018-06-10T02:41:58.156Z,18.16
2018-06-10T02:42:58.083Z,18.20
2018-06-10T02:43:58.006Z,18.20
2018-06-10T02:44:57.934Z,18.10
2018-06-10T02:45:57.859Z,18.11
2018-06-10T02:46:57.830Z,18.18
2018-06-10T02:47:57.711Z,18.07
2018-06-10T02:48:57.648Z,18.10
2018-06-10T02:49:57.563Z,18.07
2018-06-10T02:50:57.487Z,18.18
2018-06-10T02:51:57.413Z,18.15
2018-06-10T02:52:57.349Z,18.07
2018-06-10T02:53:57.265Z,18.10
2018-06-10T02:54:57.192Z,18.11
2018-06-10T02:55:57.128Z,18.05
2018-06-10T02:56:57.045Z,18.16
2018-06-10T02:57:57.004Z,18.07
2018-06-10T02:58:56.895Z,18.08
2018-06-10T02:59:56.820Z,18.16
2018-06-10T03:00:56.747Z,18.10
2018-06-10T03:01:56.677Z,18.10
2018-06-10T03:02:56.599Z,18.07
2018-06-10T03:03:56.523Z,18.25
2018-06-10T03:04:56.451Z,18.10
2018-06-10T03:05:56.380Z,18.04
2018-06-10T03:06:56.300Z,18.01
2018-06-10T03:07:56.291Z,18.05
2018-06-10T03:08:56.162Z,18.07
2018-06-10T03:09:56.080Z,17.97
2018-06-10T03:10:56.004Z,18.01
2018-06-10T03:11:55.930Z,18.07
2018-06-10T03:12:55.870Z,18.07
2018-06-10T03:13:55.784Z,18.03
2018-06-10T03:14:55.711Z,18.00
2018-06-10T03:15:55.657Z,18.05
2018-06-10T03:16:55.578Z,18.03
2018-06-10T03:17:55.486Z,17.97
2018-06-10T03:18:55.413Z,18.04
2018-06-10T03:19:55.336Z,17.98
2018-06-10T03:20:55.260Z,18.04
2018-06-10T03:21:55.187Z,17.98
2018-06-10T03:22:55.120Z,17.86
2018-06-10T03:23:55.040Z,17.78
2018-06-10T03:24:54.966Z,17.76
2018-06-10T03:25:54.892Z,17.71
2018-06-10T03:26:54.858Z,17.79
2018-06-10T03:27:54.743Z,17.68
2018-06-10T03:28:54.667Z,17.68
2018-06-10T03:29:54.596Z,17.74
2018-06-10T03:30:54.519Z,17.68
2018-06-10T03:31:54.447Z,17.78
2018-06-10T03:32:54.370Z,17.65
2018-06-10T03:33:54.294Z,17.80
2018-06-10T03:34:54.221Z,17.76
2018-06-10T03:35:54.157Z,17.65
2018-06-10T03:36:54.086Z,17.78
2018-06-10T03:37:54.006Z,17.71
2018-06-10T03:38:53.925Z,17.67
2018-06-10T03:39:53.849Z,17.87
2018-06-10T03:40:53.778Z,17.70
2018-06-10T03:41:53.702Z,17.79
2018-06-10T03:42:53.628Z,17.80
2018-06-10T03:43:53.555Z,17.82
2018-06-10T03:44:53.478Z,17.74
2018-06-10T03:45:53.422Z,17.80
2018-06-10T03:46:53.332Z,17.78
2018-06-10T03:47:53.253Z,17.79
2018-06-10T03:48:53.180Z,17.80
2018-06-10T03:49:53.105Z,17.87
2018-06-10T03:50:53.035Z,17.86
2018-06-10T03:51:52.974Z,17.94
2018-06-10T03:52:52.884Z,17.92
2018-06-10T03:53:52.812Z,17.92
2018-06-10T03:54:52.734Z,17.89
2018-06-10T03:55:52.659Z,17.87
2018-06-10T03:56:52.592Z,17.92
2018-06-10T03:57:52.513Z,17.89
2018-06-10T03:58:52.438Z,17.95
2018-06-10T03:59:52.364Z,17.92
2018-06-10T04:00:52.289Z,17.97
2018-06-10T04:01:52.219Z,17.95
2018-06-10T04:02:52.139Z,17.92
2018-06-10T04:03:52.066Z,17.98
2018-06-10T04:04:51.992Z,18.03
2018-06-10T04:05:51.921Z,18.01
2018-06-10T04:06:51.842Z,18.05
2018-06-10T04:07:51.769Z,18.08
2018-06-10T04:08:51.696Z,18.08
2018-06-10T04:09:51.623Z,18.05
2018-06-10T04:10:51.549Z,18.03
2018-06-10T04:11:51.473Z,18.04
2018-06-10T04:12:51.398Z,18.08
2018-06-10T04:13:51.325Z,18.03
2018-06-10T04:14:51.251Z,18.11
2018-06-10T04:15:51.175Z,18.11
2018-06-10T04:16:51.104Z,18.15
2018-06-10T04:17:51.032Z,18.15
2018-06-10T04:18:50.953Z,18.15
2018-06-10T04:19:50.880Z,18.29
2018-06-10T04:20:50.856Z,18.33
2018-06-10T04:21:50.734Z,18.23
2018-06-10T04:22:50.658Z,18.26
2018-06-10T04:23:50.588Z,18.23
2018-06-10T04:24:50.519Z,18.26
2018-06-10T04:25:50.435Z,18.18
2018-06-10T04:26:50.363Z,18.20
2018-06-10T04:27:50.288Z,18.11
2018-06-10T04:28:50.212Z,18.15
2018-06-10T04:29:50.137Z,18.19
2018-06-10T04:30:50.065Z,18.22
2018-06-10T04:31:49.991Z,18.28
2018-06-10T04:32:49.922Z,18.25
2018-06-10T04:33:49.846Z,18.29
2018-06-10T04:34:49.770Z,18.29
2018-06-10T04:35:49.696Z,18.20
2018-06-10T04:36:49.621Z,18.26
2018-06-10T04:37:49.552Z,18.28
2018-06-10T04:38:49.475Z,18.34
2018-06-10T04:39:49.399Z,18.37
2018-06-10T04:40:49.326Z,18.38
2018-06-10T04:41:49.250Z,18.34
2018-06-10T04:42:49.177Z,18.47
2018-06-10T04:43:49.103Z,18.41
2018-06-10T04:44:49.035Z,18.47
2018-06-10T04:45:48.961Z,18.45
2018-06-10T04:46:48.880Z,18.41
2018-06-10T04:47:48.808Z,18.41
2018-06-10T04:48:48.734Z,18.41
2018-06-10T04:49:48.665Z,18.37
2018-06-10T04:50:48.588Z,18.38
2018-06-10T04:51:48.511Z,18.37
2018-06-10T04:52:48.459Z,18.37
2018-06-10T04:53:48.373Z,18.44
2018-06-10T04:54:48.289Z,18.50
2018-06-10T04:55:48.218Z,18.45
2018-06-10T04:56:48.144Z,18.47
2018-06-10T04:57:48.072Z,18.41
2018-06-10T04:58:47.996Z,18.53
2018-06-10T04:59:47.924Z,18.44
2018-06-10T05:00:47.850Z,18.41
2018-06-10T05:01:47.776Z,18.47
2018-06-10T05:02:47.699Z,18.55
2018-06-10T05:03:47.632Z,18.49
2018-06-10T05:04:47.553Z,18.53
2018-06-10T05:05:47.478Z,18.52
2018-06-10T05:06:47.408Z,18.55
2018-06-10T05:07:47.335Z,18.56
2018-06-10T05:08:47.259Z,18.59
2018-06-10T05:09:47.189Z,18.66
2018-06-10T05:10:47.111Z,18.62
2018-06-10T05:11:47.041Z,18.63
2018-06-10T05:12:46.962Z,18.63
2018-06-10T05:13:46.889Z,18.66
2018-06-10T05:14:46.815Z,18.66
2018-06-10T05:15:46.741Z,18.66
2018-06-10T05:16:46.671Z,18.62
2018-06-10T05:17:46.596Z,18.65
2018-06-10T05:18:46.522Z,18.80
2018-06-10T05:19:46.492Z,18.78
2018-06-10T05:20:46.379Z,18.80
2018-06-10T05:21:46.303Z,18.84
2018-06-10T05:22:46.226Z,18.86
2018-06-10T05:23:46.156Z,18.86
2018-06-10T05:24:46.081Z,18.92
2018-06-10T05:25:46.008Z,18.98
2018-06-10T05:26:45.938Z,18.89
2018-06-10T05:27:45.860Z,19.00
2018-06-10T05:28:45.786Z,18.99
2018-06-10T05:29:45.713Z,19.02
2018-06-10T05:30:45.647Z,19.09
2018-06-10T05:31:45.567Z,19.09
2018-06-10T05:32:45.509Z,19.12
2018-06-10T05:33:45.426Z,19.07
2018-06-10T05:34:45.347Z,19.09
2018-06-10T05:35:45.280Z,19.14
2018-06-10T05:36:45.205Z,19.09
2018-06-10T05:37:45.130Z,19.09
2018-06-10T05:38:45.055Z,19.07
2018-06-10T05:39:44.982Z,19.16
2018-06-10T05:40:44.907Z,19.19
2018-06-10T05:41:44.835Z,19.26
2018-06-10T05:42:44.762Z,19.18
2018-06-10T05:43:44.687Z,19.30
2018-06-10T05:44:44.635Z,19.26
2018-06-10T05:45:44.545Z,19.29
2018-06-10T05:46:44.470Z,19.26
2018-06-10T05:47:44.395Z,19.29
2018-06-10T05:48:44.328Z,19.31
2018-06-10T05:49:44.262Z,19.37
2018-06-10T05:50:44.176Z,19.27
2018-06-10T05:51:44.114Z,19.24
2018-06-10T05:52:44.031Z,19.29
2018-06-10T05:53:43.959Z,19.33
2018-06-10T05:54:43.886Z,19.36
2018-06-10T05:55:43.834Z,19.41
2018-06-10T05:56:43.739Z,19.44
2018-06-10T05:57:43.665Z,19.54
2018-06-10T05:58:43.590Z,19.48
2018-06-10T05:59:43.520Z,19.52
2018-06-10T06:00:43.449Z,19.51
2018-06-10T06:01:43.374Z,19.51
2018-06-10T06:02:43.302Z,19.63
2018-06-10T06:03:43.227Z,19.64
2018-06-10T06:04:43.155Z,19.63
2018-06-10T06:05:43.081Z,19.64
2018-06-10T06:06:43.009Z,19.73
2018-06-10T06:07:42.940Z,19.77
2018-06-10T06:08:42.863Z,19.86
2018-06-10T06:09:42.791Z,19.89
2018-06-10T06:10:42.716Z,19.88
2018-06-10T06:11:42.650Z,19.92
2018-06-10T06:12:42.572Z,19.96
2018-06-10T06:13:42.508Z,19.99
2018-06-10T06:14:42.427Z,20.04
2018-06-10T06:15:42.353Z,20.09
2018-06-10T06:16:42.281Z,20.11
2018-06-10T06:17:42.208Z,20.09
2018-06-10T06:18:42.136Z,20.14
2018-06-10T06:19:42.063Z,20.10
2018-06-10T06:20:41.990Z,20.14
2018-06-10T06:21:41.928Z,20.16
2018-06-10T06:22:41.847Z,20.22
2018-06-10T06:23:41.771Z,20.24
2018-06-10T06:24:41.702Z,20.16
2018-06-10T06:25:41.627Z,20.29
2018-06-10T06:26:41.559Z,20.21
2018-06-10T06:27:41.483Z,20.25
2018-06-10T06:28:41.411Z,20.26
2018-06-10T06:29:41.339Z,20.39
2018-06-10T06:30:41.264Z,20.36
2018-06-10T06:31:41.192Z,20.41
2018-06-10T06:32:41.121Z,20.43
2018-06-10T06:33:41.053Z,20.44
2018-06-10T06:34:40.977Z,20.56
2018-06-10T06:35:40.922Z,20.50
2018-06-10T06:36:40.832Z,20.59
2018-06-10T06:37:40.758Z,20.60
2018-06-10T06:38:40.687Z,20.56
2018-06-10T06:39:40.619Z,20.63
2018-06-10T06:40:40.543Z,20.60
2018-06-10T06:41:40.469Z,20.66
2018-06-10T06:42:40.398Z,20.69
2018-06-10T06:43:40.326Z,20.75
2018-06-10T06:44:40.255Z,20.75
2018-06-10T06:45:40.249Z,20.80
2018-06-10T06:46:40.108Z,20.81
2018-06-10T06:47:40.035Z,20.78
2018-06-10T06:48:39.975Z,20.82
2018-06-10T06:49:39.893Z,20.77
2018-06-10T06:50:39.818Z,20.81
2018-06-10T06:51:39.747Z,20.93
2018-06-10T06:52:39.774Z,20.82
2018-06-10T06:53:39.605Z,20.84
2018-06-10T06:54:39.531Z,20.97
2018-06-10T06:55:39.462Z,20.97
2018-06-10T06:56:39.387Z,21.07
2018-06-10T06:57:39.318Z,21.09
2018-06-10T06:58:39.239Z,21.07
2018-06-10T06:59:39.170Z,21.09
2018-06-10T07:00:39.096Z,21.14
2018-06-10T07:01:39.030Z,21.07
2018-06-10T07:02:38.955Z,21.17
2018-06-10T07:03:38.882Z,21.15
2018-06-10T07:04:38.811Z,21.21
2018-06-10T07:05:38.745Z,21.30
2018-06-10T07:06:38.665Z,21.25
2018-06-10T07:07:38.597Z,21.22
2018-06-10T07:08:38.526Z,21.27
2018-06-10T07:09:38.451Z,21.25
2018-06-10T07:10:38.380Z,21.25
2018-06-10T07:11:38.307Z,21.29
2018-06-10T07:12:38.243Z,21.29
2018-06-10T07:13:38.164Z,21.29
2018-06-10T07:14:38.091Z,21.37
2018-06-10T07:15:38.019Z,21.48
2018-06-10T07:16:37.949Z,21.45
2018-06-10T07:17:37.878Z,21.48
2018-06-10T07:18:37.807Z,21.52
2018-06-10T07:19:37.734Z,21.50
2018-06-10T07:20:37.663Z,21.50
2018-06-10T07:21:37.592Z,21.61
2018-06-10T07:22:37.520Z,21.61
2018-06-10T07:23:37.454Z,21.64
2018-06-10T07:24:37.381Z,21.67
2018-06-10T07:25:37.306Z,21.72
2018-06-10T07:26:37.233Z,21.69
2018-06-10T07:27:37.223Z,21.67
2018-06-10T07:28:37.090Z,21.66
2018-06-10T07:29:37.027Z,21.72
2018-06-10T07:30:36.956Z,21.72
2018-06-10T07:31:36.876Z,21.80
2018-06-10T07:32:36.858Z,21.70
2018-06-10T07:33:36.733Z,21.77
2018-06-10T07:34:36.674Z,21.85
2018-06-10T07:35:36.591Z,21.89
2018-06-10T07:36:36.529Z,21.95
2018-06-10T07:37:36.467Z,21.95
2018-06-10T07:38:36.374Z,21.98
2018-06-10T07:39:36.305Z,22.06
2018-06-10T07:40:36.247Z,22.08
2018-06-10T07:41:36.160Z,22.11
2018-06-10T07:42:36.092Z,22.04
2018-06-10T07:43:36.024Z,22.14
2018-06-10T07:44:35.949Z,22.18
2018-06-10T07:45:35.877Z,22.25
2018-06-10T07:46:35.805Z,22.18
2018-06-10T07:47:35.734Z,22.35
2018-06-10T07:48:35.679Z,22.23
2018-06-10T07:49:35.606Z,22.35
2018-06-10T07:50:35.521Z,22.44
2018-06-10T07:51:35.451Z,22.45
2018-06-10T07:52:35.380Z,22.47
2018-06-10T07:53:35.322Z,22.57
2018-06-10T07:54:35.237Z,22.53
2018-06-10T07:55:35.172Z,22.50
2018-06-10T07:56:35.095Z,22.53
2018-06-10T07:57:35.041Z,22.63
2018-06-10T07:58:34.952Z,22.60
2018-06-10T07:59:34.882Z,22.66
2018-06-10T08:00:34.818Z,22.55
2018-06-10T08:01:34.745Z,22.66
2018-06-10T08:02:34.668Z,22.66
2018-06-10T08:03:34.641Z,22.70
2018-06-10T08:04:34.528Z,22.84
2018-06-10T08:05:34.465Z,22.75
2018-06-10T08:06:34.388Z,22.80
2018-06-10T08:07:34.322Z,22.81
2018-06-10T08:08:34.245Z,22.83
2018-06-10T08:09:34.197Z,22.78
2018-06-10T08:10:34.104Z,22.80
2018-06-10T08:11:34.043Z,22.81
2018-06-10T08:12:33.963Z,22.83
2018-06-10T08:13:33.893Z,22.85
2018-06-10T08:14:33.821Z,22.87
2018-06-10T08:15:33.778Z,22.87
2018-06-10T08:16:33.682Z,22.84
2018-06-10T08:17:33.611Z,22.90
2018-06-10T08:18:33.538Z,23.00
2018-06-10T08:19:33.468Z,23.08
2018-06-10T08:20:33.398Z,23.10
2018-06-10T08:21:33.356Z,23.05
2018-06-10T08:22:33.263Z,23.13
2018-06-10T08:23:33.193Z,23.17
2018-06-10T08:24:33.119Z,23.18
2018-06-10T08:25:33.050Z,23.25
2018-06-10T08:26:33.005Z,23.27
2018-06-10T08:27:32.906Z,23.34
2018-06-10T08:28:32.836Z,23.39
2018-06-10T08:29:32.767Z,23.50
2018-06-10T08:30:32.699Z,23.46
2018-06-10T08:31:32.627Z,23.39
2018-06-10T08:32:32.556Z,23.54
2018-06-10T08:33:32.485Z,23.46
2018-06-10T08:34:32.418Z,23.62
2018-06-10T08:35:32.345Z,23.50
2018-06-10T08:36:32.275Z,23.50
2018-06-10T08:37:32.205Z,23.48
2018-06-10T08:38:32.133Z,23.55
2018-06-10T08:39:32.064Z,23.50
2018-06-10T08:40:31.996Z,23.58
2018-06-10T08:41:31.976Z,23.55
2018-06-10T08:42:31.862Z,23.58
2018-06-10T08:43:31.796Z,23.51
2018-06-10T08:44:31.754Z,23.59
2018-06-10T08:45:31.643Z,23.63
2018-06-10T08:46:31.580Z,23.74
2018-06-10T08:47:31.507Z,23.84
2018-06-10T08:48:31.433Z,23.81
2018-06-10T08:49:31.371Z,23.84
2018-06-10T08:50:31.322Z,23.92
2018-06-10T08:51:31.231Z,23.98
2018-06-10T08:52:31.155Z,24.21
2018-06-10T08:53:31.092Z,24.18
2018-06-10T08:54:31.015Z,24.24
2018-06-10T08:55:30.942Z,24.33
2018-06-10T08:56:30.874Z,24.38
2018-06-10T08:57:30.805Z,24.47
2018-06-10T08:58:30.735Z,24.48
2018-06-10T08:59:30.676Z,24.58
2018-06-10T09:00:30.598Z,24.54
2018-06-10T09:01:30.536Z,24.70
2018-06-10T09:02:30.466Z,24.69
2018-06-10T09:03:30.392Z,24.70
2018-06-10T09:04:30.332Z,24.76
2018-06-10T09:05:30.252Z,24.74
2018-06-10T09:06:30.179Z,24.70
2018-06-10T09:07:30.116Z,24.74
2018-06-10T09:08:30.093Z,24.78
2018-06-10T09:09:30.016Z,24.81
2018-06-10T09:10:29.956Z,24.89
2018-06-10T09:11:30.516Z,24.89
2018-06-10T09:12:29.765Z,24.89
2018-06-10T09:13:29.697Z,24.91
2018-06-10T09:14:29.628Z,24.84
2018-06-10T09:15:29.558Z,24.93
2018-06-10T09:16:29.491Z,24.86
2018-06-10T09:17:29.422Z,24.78
2018-06-10T09:18:29.353Z,24.77
2018-06-10T09:19:29.286Z,24.84
2018-06-10T09:20:29.217Z,24.86
2018-06-10T09:21:29.148Z,24.88
2018-06-10T09:22:29.076Z,24.98
2018-06-10T09:23:29.009Z,24.93
2018-06-10T09:24:28.940Z,25.03
2018-06-10T09:25:28.872Z,24.96
2018-06-10T09:26:28.804Z,25.01
2018-06-10T09:27:28.790Z,25.10
2018-06-10T09:28:28.672Z,25.13
2018-06-10T09:29:28.610Z,25.18
2018-06-10T09:30:28.525Z,25.22
2018-06-10T09:31:28.457Z,25.13
2018-06-10T09:32:28.388Z,25.13
2018-06-10T09:33:28.319Z,25.22
2018-06-10T09:34:28.250Z,25.21
2018-06-10T09:35:28.196Z,25.22
2018-06-10T09:36:28.114Z,25.33
2018-06-10T09:37:28.064Z,25.28
2018-06-10T09:38:27.977Z,25.28
2018-06-10T09:39:27.907Z,25.25
2018-06-10T09:40:27.840Z,25.31
2018-06-10T09:41:27.772Z,25.26
2018-06-10T09:42:27.700Z,25.26
2018-06-10T09:43:27.642Z,25.38
2018-06-10T09:44:27.574Z,25.38
2018-06-10T09:45:27.502Z,25.48
2018-06-10T09:46:27.426Z,25.46
2018-06-10T09:47:27.359Z,25.46
2018-06-10T09:48:27.300Z,25.41
2018-06-10T09:49:27.221Z,25.51
2018-06-10T09:50:27.151Z,25.38
2018-06-10T09:51:27.084Z,25.47
2018-06-10T09:52:27.015Z,25.47
2018-06-10T09:53:26.949Z,25.62
2018-06-10T09:54:26.878Z,25.68
2018-06-10T09:55:26.917Z,25.75
2018-06-10T09:56:26.744Z,25.78
2018-06-10T09:57:26.695Z,25.80
2018-06-10T09:58:26.603Z,25.83
2018-06-10T09:59:26.536Z,25.95
2018-06-10T10:00:26.474Z,26.02
2018-06-10T10:01:26.418Z,25.98
2018-06-10T10:02:26.332Z,26.02
2018-06-10T10:03:26.262Z,26.10
2018-06-10T10:04:26.199Z,26.10
2018-06-10T10:05:26.132Z,26.22
2018-06-10T10:06:26.065Z,26.25
2018-06-10T10:07:25.993Z,26.07
2018-06-10T10:08:25.921Z,26.05
2018-06-10T10:09:25.853Z,26.07
2018-06-10T10:10:25.786Z,26.18
2018-06-10T10:11:25.717Z,26.26
2018-06-10T10:12:25.646Z,26.31
2018-06-10T10:13:25.583Z,26.33
2018-06-10T10:14:25.585Z,26.37
2018-06-10T10:15:25.451Z,26.41
2018-06-10T10:16:25.378Z,26.41
2018-06-10T10:17:25.308Z,26.47
2018-06-10T10:18:25.239Z,26.38
2018-06-10T10:19:25.174Z,26.53
2018-06-10T10:20:25.105Z,26.44
2018-06-10T10:21:25.038Z,26.47
2018-06-10T10:22:24.970Z,26.44
2018-06-10T10:23:24.902Z,26.38
2018-06-10T10:24:24.833Z,26.31
2018-06-10T10:25:24.769Z,26.40
2018-06-10T10:26:24.704Z,26.45
2018-06-10T10:27:24.631Z,26.33
2018-06-10T10:28:24.566Z,26.28
2018-06-10T10:29:24.496Z,26.18
2018-06-10T10:30:24.426Z,26.25
2018-06-10T10:31:24.358Z,26.13
2018-06-10T10:32:24.290Z,26.07
2018-06-10T10:33:24.223Z,26.05
2018-06-10T10:34:24.160Z,26.21
2018-06-10T10:35:24.091Z,26.19
2018-06-10T10:36:24.022Z,26.22
2018-06-10T10:37:23.959Z,26.15
2018-06-10T10:38:23.887Z,26.28
2018-06-10T10:39:23.815Z,26.34
2018-06-10T10:40:23.748Z,26.47
2018-06-10T10:41:23.681Z,26.47
2018-06-10T10:42:23.612Z,26.56
2018-06-10T10:43:23.544Z,26.63
2018-06-10T10:44:23.477Z,26.68
2018-06-10T10:45:23.410Z,26.63
2018-06-10T10:46:23.344Z,26.77
2018-06-10T10:47:23.272Z,26.74
2018-06-10T10:48:23.204Z,26.65
2018-06-10T10:49:23.137Z,26.60
2018-06-10T10:50:23.070Z,26.48
2018-06-10T10:51:23.006Z,26.58
2018-06-10T10:52:22.935Z,26.60
2018-06-10T10:53:22.865Z,26.77
2018-06-10T10:54:22.804Z,26.80
2018-06-10T10:55:22.734Z,26.89
2018-06-10T10:56:22.665Z,26.83
2018-06-10T10:57:22.597Z,26.89
2018-06-10T10:58:22.527Z,26.90
2018-06-10T10:59:22.460Z,27.00
2018-06-10T11:00:22.392Z,27.12
2018-06-10T11:01:22.326Z,27.15
2018-06-10T11:02:22.264Z,27.32
2018-06-10T11:03:22.196Z,27.37
2018-06-10T11:04:22.121Z,27.35
2018-06-10T11:05:22.055Z,27.48
2018-06-10T11:06:21.987Z,27.49
2018-06-10T11:07:21.939Z,27.60
2018-06-10T11:08:21.853Z,27.52
2018-06-10T11:09:21.789Z,27.39
2018-06-10T11:10:21.723Z,27.32
2018-06-10T11:11:21.650Z,27.35
2018-06-10T11:12:21.583Z,27.30
2018-06-10T11:13:21.515Z,27.32
2018-06-10T11:14:21.449Z,27.21
2018-06-10T11:15:21.388Z,27.14
2018-06-10T11:16:21.313Z,27.14
2018-06-10T11:17:21.255Z,27.18
2018-06-10T11:18:21.177Z,27.10
2018-06-10T11:19:21.112Z,26.99
2018-06-10T11:20:21.061Z,26.88
2018-06-10T11:21:20.978Z,26.84
2018-06-10T11:22:20.911Z,26.74
2018-06-10T11:23:20.840Z,26.75
2018-06-10T11:24:20.778Z,26.84
2018-06-10T11:25:20.706Z,26.88
2018-06-10T11:26:20.639Z,26.97
2018-06-10T11:27:20.623Z,27.05
2018-06-10T11:28:20.502Z,27.18
2018-06-10T11:29:20.435Z,27.33
2018-06-10T11:30:20.367Z,27.42
2018-06-10T11:31:20.299Z,27.42
2018-06-10T11:32:20.233Z,27.52
2018-06-10T11:33:20.166Z,27.47
2018-06-10T11:34:20.116Z,27.54
2018-06-10T11:35:20.035Z,27.51
2018-06-10T11:36:19.965Z,27.60
2018-06-10T11:37:19.894Z,27.65
2018-06-10T11:38:19.825Z,27.74
2018-06-10T11:39:19.759Z,27.67
2018-06-10T11:40:19.692Z,27.68
2018-06-10T11:41:19.626Z,27.71
2018-06-10T11:42:19.613Z,27.74
2018-06-10T11:43:19.492Z,27.73
2018-06-10T11:44:19.425Z,27.71
2018-06-10T11:45:19.359Z,27.75
2018-06-10T11:46:19.289Z,27.82
2018-06-10T11:47:19.225Z,27.77
2018-06-10T11:48:19.152Z,27.77
2018-06-10T11:49:19.085Z,27.75
2018-06-10T11:50:19.021Z,27.85
2018-06-10T11:51:18.951Z,27.98
2018-06-10T11:52:18.884Z,28.07
2018-06-10T11:53:18.817Z,28.12
2018-06-10T11:54:18.750Z,28.25
2018-06-10T11:55:18.683Z,28.35
2018-06-10T11:56:18.631Z,28.48
2018-06-10T11:57:18.549Z,28.47
2018-06-10T11:58:18.482Z,28.48
2018-06-10T11:59:18.416Z,28.47
2018-06-10T12:00:18.347Z,28.54
2018-06-10T12:01:18.282Z,28.45
2018-06-10T12:02:18.213Z,28.60
2018-06-10T12:03:18.146Z,28.52
2018-06-10T12:04:18.083Z,28.57
2018-06-10T12:05:18.032Z,28.57
2018-06-10T12:06:17.956Z,28.62
2018-06-10T12:07:17.896Z,28.67
2018-06-10T12:08:17.816Z,28.70
2018-06-10T12:09:17.748Z,28.79
2018-06-10T12:10:17.689Z,28.91
2018-06-10T12:11:17.628Z,29.04
2018-06-10T12:12:17.549Z,29.02
2018-06-10T12:13:17.482Z,28.85
2018-06-10T12:14:17.416Z,28.72
2018-06-10T12:15:17.350Z,28.72
2018-06-10T12:16:17.283Z,28.66
2018-06-10T12:17:17.217Z,28.69
2018-06-10T12:18:17.160Z,28.81
2018-06-10T12:19:17.085Z,28.81
2018-06-10T12:20:17.018Z,28.82
2018-06-10T12:21:16.956Z,28.82
2018-06-10T12:22:16.886Z,28.89
2018-06-10T12:23:16.873Z,28.98
2018-06-10T12:24:16.756Z,29.02
2018-06-10T12:25:16.697Z,29.08
2018-06-10T12:26:16.621Z,29.08
2018-06-10T12:27:16.554Z,29.10
2018-06-10T12:28:16.496Z,29.16
2018-06-10T12:29:16.444Z,29.16
2018-06-10T12:30:16.361Z,29.27
2018-06-10T12:31:16.293Z,29.32
2018-06-10T12:32:16.234Z,29.31
2018-06-10T12:33:16.159Z,29.41
2018-06-10T12:34:16.105Z,29.26
2018-06-10T12:35:16.092Z,29.23
2018-06-10T12:36:15.961Z,29.32
2018-06-10T12:37:15.900Z,29.49
2018-06-10T12:38:15.829Z,29.51
2018-06-10T12:39:15.774Z,29.57
2018-06-10T12:40:15.706Z,29.66
2018-06-10T12:41:15.630Z,29.72
2018-06-10T12:42:15.564Z,29.61
2018-06-10T12:43:15.500Z,29.50
2018-06-10T12:44:15.433Z,29.50
2018-06-10T12:45:15.375Z,29.41
2018-06-10T12:46:15.303Z,29.50
2018-06-10T12:47:15.239Z,29.54
2018-06-10T12:48:15.176Z,29.59
2018-06-10T12:49:15.164Z,29.56
2018-06-10T12:50:15.041Z,29.53
2018-06-10T12:51:14.985Z,29.42